sensor_id;sensor_type;location;lat;lon;timestamp;P1;durP1;ratioP1;P2;durP2;ratioP2
295;SDS011;132;48.770;9.200;2023-02-22T00:01:30;9.50;;;4.20;;
295;SDS011;132;48.770;9.200;2023-02-22T00:04:02;8.18;;;4.25;;
295;SDS011;132;48.770;9.200;2023-02-22T00:06:31;8.07;;;4.05;;
295;SDS011;132;48.770;9.200;2023-02-22T00:08:58;7.60;;;4.10;;
295;SDS011;132;48.770;9.200;2023-02-22T00:11:24;7.93;;;4.20;;
295;SDS011;132;48.770;9.200;2023-02-22T00:13:51;6.88;;;4.28;;
295;SDS011;132;48.770;9.200;2023-02-22T00:16:22;6.60;;;4.10;;
295;SDS011;132;48.770;9.200;2023-02-22T00:18:50;5.10;;;3.88;;
295;SDS011;132;48.770;9.200;2023-02-22T00:21:16;10.13;;;4.20;;
295;SDS011;132;48.770;9.200;2023-02-22T00:23:44;7.28;;;3.70;;
295;SDS011;132;48.770;9.200;2023-02-22T00:26:16;7.32;;;4.38;;
295;SDS011;132;48.770;9.200;2023-02-22T00:28:48;6.75;;;4.50;;
295;SDS011;132;48.770;9.200;2023-02-22T00:31:17;7.13;;;3.97;;
295;SDS011;132;48.770;9.200;2023-02-22T00:33:44;13.88;;;4.82;;
295;SDS011;132;48.770;9.200;2023-02-22T00:36:11;7.22;;;4.55;;
295;SDS011;132;48.770;9.200;2023-02-22T00:38:38;8.90;;;5.20;;
295;SDS011;132;48.770;9.200;2023-02-22T00:41:06;7.65;;;5.00;;
295;SDS011;132;48.770;9.200;2023-02-22T00:43:33;12.20;;;5.50;;
295;SDS011;132;48.770;9.200;2023-02-22T00:45:59;9.63;;;5.40;;
295;SDS011;132;48.770;9.200;2023-02-22T00:48:26;11.15;;;5.47;;
295;SDS011;132;48.770;9.200;2023-02-22T00:50:53;9.75;;;5.05;;
295;SDS011;132;48.770;9.200;2023-02-22T00:53:21;11.68;;;5.20;;
295;SDS011;132;48.770;9.200;2023-02-22T00:55:48;11.05;;;5.65;;
295;SDS011;132;48.770;9.200;2023-02-22T00:58:15;8.55;;;5.03;;
295;SDS011;132;48.770;9.200;2023-02-22T01:00:42;8.75;;;5.07;;
295;SDS011;132;48.770;9.200;2023-02-22T01:03:09;11.40;;;5.35;;
295;SDS011;132;48.770;9.200;2023-02-22T01:05:38;12.82;;;5.60;;
295;SDS011;132;48.770;9.200;2023-02-22T01:08:06;10.73;;;5.65;;
295;SDS011;132;48.770;9.200;2023-02-22T01:10:33;9.68;;;5.43;;
295;SDS011;132;48.770;9.200;2023-02-22T01:13:01;10.60;;;5.47;;
295;SDS011;132;48.770;9.200;2023-02-22T01:15:33;10.25;;;5.70;;
295;SDS011;132;48.770;9.200;2023-02-22T01:18:01;10.00;;;5.30;;
295;SDS011;132;48.770;9.200;2023-02-22T01:20:27;11.73;;;5.95;;
295;SDS011;132;48.770;9.200;2023-02-22T01:22:55;8.60;;;5.07;;
295;SDS011;132;48.770;9.200;2023-02-22T01:25:24;10.93;;;5.90;;
295;SDS011;132;48.770;9.200;2023-02-22T01:27:54;18.05;;;6.60;;
295;SDS011;132;48.770;9.200;2023-02-22T01:30:23;14.40;;;5.82;;
295;SDS011;132;48.770;9.200;2023-02-22T01:32:52;13.45;;;6.90;;
295;SDS011;132;48.770;9.200;2023-02-22T01:35:20;10.82;;;6.40;;
295;SDS011;132;48.770;9.200;2023-02-22T01:37:49;13.27;;;6.78;;
295;SDS011;132;48.770;9.200;2023-02-22T01:40:19;10.98;;;6.25;;
295;SDS011;132;48.770;9.200;2023-02-22T01:43:01;14.80;;;6.25;;
295;SDS011;132;48.770;9.200;2023-02-22T01:45:52;14.73;;;7.28;;
295;SDS011;132;48.770;9.200;2023-02-22T01:48:41;12.10;;;6.15;;
295;SDS011;132;48.770;9.200;2023-02-22T01:51:16;11.80;;;6.90;;
295;SDS011;132;48.770;9.200;2023-02-22T01:56:18;17.27;;;7.35;;
295;SDS011;132;48.770;9.200;2023-02-22T01:58:48;17.17;;;7.32;;
295;SDS011;132;48.770;9.200;2023-02-22T02:01:19;13.20;;;7.03;;
295;SDS011;132;48.770;9.200;2023-02-22T02:03:47;13.15;;;7.22;;
295;SDS011;132;48.770;9.200;2023-02-22T02:06:16;12.40;;;6.63;;
295;SDS011;132;48.770;9.200;2023-02-22T02:11:41;14.23;;;7.15;;
295;SDS011;132;48.770;9.200;2023-02-22T02:14:09;11.80;;;6.47;;
295;SDS011;132;48.770;9.200;2023-02-22T02:16:48;14.18;;;7.03;;
295;SDS011;132;48.770;9.200;2023-02-22T02:19:34;13.15;;;6.85;;
295;SDS011;132;48.770;9.200;2023-02-22T02:28:32;13.60;;;6.95;;
295;SDS011;132;48.770;9.200;2023-02-22T02:31:31;15.57;;;6.95;;
295;SDS011;132;48.770;9.200;2023-02-22T02:37:17;11.80;;;6.68;;
295;SDS011;132;48.770;9.200;2023-02-22T02:39:56;12.70;;;6.55;;
295;SDS011;132;48.770;9.200;2023-02-22T02:42:33;11.88;;;6.50;;
295;SDS011;132;48.770;9.200;2023-02-22T02:45:17;11.80;;;6.80;;
295;SDS011;132;48.770;9.200;2023-02-22T02:47:50;16.00;;;7.05;;
295;SDS011;132;48.770;9.200;2023-02-22T02:50:33;14.70;;;7.30;;
295;SDS011;132;48.770;9.200;2023-02-22T02:53:07;13.80;;;7.28;;
295;SDS011;132;48.770;9.200;2023-02-22T02:55:34;14.63;;;6.60;;
295;SDS011;132;48.770;9.200;2023-02-22T02:58:03;13.40;;;7.22;;
295;SDS011;132;48.770;9.200;2023-02-22T03:00:34;15.20;;;7.25;;
295;SDS011;132;48.770;9.200;2023-02-22T03:08:56;12.93;;;7.15;;
295;SDS011;132;48.770;9.200;2023-02-22T03:11:29;16.83;;;7.00;;
295;SDS011;132;48.770;9.200;2023-02-22T03:19:37;12.95;;;7.22;;
295;SDS011;132;48.770;9.200;2023-02-22T03:22:14;14.90;;;7.43;;
295;SDS011;132;48.770;9.200;2023-02-22T03:24:55;16.08;;;7.50;;
295;SDS011;132;48.770;9.200;2023-02-22T03:27:39;15.70;;;7.15;;
295;SDS011;132;48.770;9.200;2023-02-22T03:30:24;14.75;;;7.03;;
295;SDS011;132;48.770;9.200;2023-02-22T03:33:06;16.15;;;7.40;;
295;SDS011;132;48.770;9.200;2023-02-22T03:35:47;13.27;;;7.10;;
295;SDS011;132;48.770;9.200;2023-02-22T03:38:21;11.32;;;7.03;;
295;SDS011;132;48.770;9.200;2023-02-22T03:40:51;13.52;;;7.95;;
295;SDS011;132;48.770;9.200;2023-02-22T03:43:23;15.27;;;7.28;;
295;SDS011;132;48.770;9.200;2023-02-22T03:45:58;13.20;;;6.90;;
295;SDS011;132;48.770;9.200;2023-02-22T03:48:41;14.10;;;7.38;;
295;SDS011;132;48.770;9.200;2023-02-22T03:51:22;10.48;;;6.85;;
295;SDS011;132;48.770;9.200;2023-02-22T03:53:54;13.23;;;7.60;;
295;SDS011;132;48.770;9.200;2023-02-22T03:56:27;16.60;;;7.82;;
295;SDS011;132;48.770;9.200;2023-02-22T03:59:06;24.63;;;7.72;;
295;SDS011;132;48.770;9.200;2023-02-22T04:01:34;14.18;;;7.25;;
295;SDS011;132;48.770;9.200;2023-02-22T04:04:01;15.38;;;7.95;;
295;SDS011;132;48.770;9.200;2023-02-22T04:06:29;14.27;;;7.75;;
295;SDS011;132;48.770;9.200;2023-02-22T04:08:57;13.30;;;7.82;;
295;SDS011;132;48.770;9.200;2023-02-22T04:11:24;16.98;;;7.88;;
295;SDS011;132;48.770;9.200;2023-02-22T04:13:51;14.52;;;7.50;;
295;SDS011;132;48.770;9.200;2023-02-22T04:16:20;15.93;;;7.95;;
295;SDS011;132;48.770;9.200;2023-02-22T04:18:46;14.43;;;7.43;;
295;SDS011;132;48.770;9.200;2023-02-22T04:21:16;15.57;;;7.15;;
295;SDS011;132;48.770;9.200;2023-02-22T04:23:46;14.48;;;6.90;;
295;SDS011;132;48.770;9.200;2023-02-22T04:26:13;17.73;;;7.30;;
295;SDS011;132;48.770;9.200;2023-02-22T04:28:39;13.77;;;7.32;;
295;SDS011;132;48.770;9.200;2023-02-22T04:31:09;21.70;;;7.80;;
295;SDS011;132;48.770;9.200;2023-02-22T04:33:37;15.13;;;7.68;;
295;SDS011;132;48.770;9.200;2023-02-22T04:36:03;16.25;;;7.82;;
295;SDS011;132;48.770;9.200;2023-02-22T04:38:32;14.43;;;7.82;;
295;SDS011;132;48.770;9.200;2023-02-22T04:41:00;15.82;;;8.20;;
295;SDS011;132;48.770;9.200;2023-02-22T04:43:26;13.93;;;7.65;;
295;SDS011;132;48.770;9.200;2023-02-22T04:46:00;13.57;;;7.55;;
295;SDS011;132;48.770;9.200;2023-02-22T04:48:28;15.18;;;7.80;;
295;SDS011;132;48.770;9.200;2023-02-22T04:50:55;13.13;;;7.20;;
295;SDS011;132;48.770;9.200;2023-02-22T04:53:23;11.23;;;7.28;;
295;SDS011;132;48.770;9.200;2023-02-22T04:55:49;14.50;;;7.72;;
295;SDS011;132;48.770;9.200;2023-02-22T04:58:16;17.00;;;7.78;;
295;SDS011;132;48.770;9.200;2023-02-22T05:00:43;18.00;;;7.55;;
295;SDS011;132;48.770;9.200;2023-02-22T05:03:09;14.95;;;7.70;;
295;SDS011;132;48.770;9.200;2023-02-22T05:05:35;13.82;;;8.05;;
295;SDS011;132;48.770;9.200;2023-02-22T05:08:02;12.23;;;7.47;;
295;SDS011;132;48.770;9.200;2023-02-22T05:10:28;14.45;;;7.97;;
295;SDS011;132;48.770;9.200;2023-02-22T05:12:54;15.90;;;8.15;;
295;SDS011;132;48.770;9.200;2023-02-22T05:15:21;13.43;;;7.45;;
295;SDS011;132;48.770;9.200;2023-02-22T05:17:50;19.90;;;8.15;;
295;SDS011;132;48.770;9.200;2023-02-22T05:20:24;13.63;;;7.70;;
295;SDS011;132;48.770;9.200;2023-02-22T05:22:59;18.65;;;8.18;;
295;SDS011;132;48.770;9.200;2023-02-22T05:25:28;17.25;;;9.05;;
295;SDS011;132;48.770;9.200;2023-02-22T05:27:55;16.65;;;8.93;;
295;SDS011;132;48.770;9.200;2023-02-22T05:30:25;18.17;;;8.98;;
295;SDS011;132;48.770;9.200;2023-02-22T05:32:53;21.40;;;9.05;;
295;SDS011;132;48.770;9.200;2023-02-22T05:35:20;17.38;;;9.30;;
295;SDS011;132;48.770;9.200;2023-02-22T05:37:49;15.27;;;8.90;;
295;SDS011;132;48.770;9.200;2023-02-22T05:40:18;16.13;;;8.20;;
295;SDS011;132;48.770;9.200;2023-02-22T05:42:49;15.63;;;8.60;;
295;SDS011;132;48.770;9.200;2023-02-22T05:45:17;14.18;;;8.10;;
295;SDS011;132;48.770;9.200;2023-02-22T05:47:46;17.38;;;9.05;;
295;SDS011;132;48.770;9.200;2023-02-22T05:50:13;15.60;;;7.78;;
295;SDS011;132;48.770;9.200;2023-02-22T05:52:40;16.98;;;8.02;;
295;SDS011;132;48.770;9.200;2023-02-22T05:55:08;15.55;;;8.10;;
295;SDS011;132;48.770;9.200;2023-02-22T05:57:35;17.02;;;8.77;;
295;SDS011;132;48.770;9.200;2023-02-22T06:00:05;20.55;;;9.73;;
295;SDS011;132;48.770;9.200;2023-02-22T06:02:38;16.30;;;8.77;;
295;SDS011;132;48.770;9.200;2023-02-22T06:05:05;16.90;;;8.63;;
295;SDS011;132;48.770;9.200;2023-02-22T06:07:31;12.07;;;7.70;;
295;SDS011;132;48.770;9.200;2023-02-22T06:09:58;20.27;;;8.88;;
295;SDS011;132;48.770;9.200;2023-02-22T06:12:24;19.92;;;9.45;;
295;SDS011;132;48.770;9.200;2023-02-22T06:14:51;17.67;;;9.10;;
295;SDS011;132;48.770;9.200;2023-02-22T06:17:18;16.83;;;8.80;;
295;SDS011;132;48.770;9.200;2023-02-22T06:19:44;16.17;;;8.43;;
295;SDS011;132;48.770;9.200;2023-02-22T06:22:15;22.80;;;9.45;;
295;SDS011;132;48.770;9.200;2023-02-22T06:24:43;16.92;;;8.90;;
295;SDS011;132;48.770;9.200;2023-02-22T06:27:09;14.30;;;8.18;;
295;SDS011;132;48.770;9.200;2023-02-22T06:29:36;14.75;;;8.13;;
295;SDS011;132;48.770;9.200;2023-02-22T06:32:02;15.55;;;8.55;;
295;SDS011;132;48.770;9.200;2023-02-22T06:34:29;18.20;;;8.45;;
295;SDS011;132;48.770;9.200;2023-02-22T06:36:55;18.45;;;8.95;;
295;SDS011;132;48.770;9.200;2023-02-22T06:39:22;15.55;;;8.60;;
295;SDS011;132;48.770;9.200;2023-02-22T06:41:50;17.20;;;8.70;;
295;SDS011;132;48.770;9.200;2023-02-22T06:44:17;15.75;;;8.82;;
295;SDS011;132;48.770;9.200;2023-02-22T06:46:46;19.42;;;8.90;;
295;SDS011;132;48.770;9.200;2023-02-22T06:49:16;17.40;;;9.13;;
295;SDS011;132;48.770;9.200;2023-02-22T06:51:43;19.35;;;8.70;;
295;SDS011;132;48.770;9.200;2023-02-22T06:54:10;20.60;;;9.10;;
295;SDS011;132;48.770;9.200;2023-02-22T06:56:36;14.15;;;7.85;;
295;SDS011;132;48.770;9.200;2023-02-22T06:59:02;16.75;;;8.10;;
295;SDS011;132;48.770;9.200;2023-02-22T07:01:29;18.52;;;8.93;;
295;SDS011;132;48.770;9.200;2023-02-22T07:03:56;13.02;;;7.75;;
295;SDS011;132;48.770;9.200;2023-02-22T07:06:22;21.75;;;9.60;;
295;SDS011;132;48.770;9.200;2023-02-22T07:08:48;17.00;;;8.48;;
295;SDS011;132;48.770;9.200;2023-02-22T07:11:15;19.23;;;7.70;;
295;SDS011;132;48.770;9.200;2023-02-22T07:13:42;18.23;;;8.52;;
295;SDS011;132;48.770;9.200;2023-02-22T07:16:08;15.50;;;8.52;;
295;SDS011;132;48.770;9.200;2023-02-22T07:18:34;15.38;;;8.43;;
295;SDS011;132;48.770;9.200;2023-02-22T07:21:01;15.80;;;8.20;;
295;SDS011;132;48.770;9.200;2023-02-22T07:23:27;15.50;;;9.27;;
295;SDS011;132;48.770;9.200;2023-02-22T07:25:53;17.58;;;8.48;;
295;SDS011;132;48.770;9.200;2023-02-22T07:28:20;14.95;;;8.73;;
295;SDS011;132;48.770;9.200;2023-02-22T07:30:46;16.42;;;7.53;;
295;SDS011;132;48.770;9.200;2023-02-22T07:33:12;18.67;;;8.80;;
295;SDS011;132;48.770;9.200;2023-02-22T07:35:48;15.40;;;8.75;;
295;SDS011;132;48.770;9.200;2023-02-22T07:38:17;16.27;;;8.50;;
295;SDS011;132;48.770;9.200;2023-02-22T07:40:44;21.45;;;8.90;;
295;SDS011;132;48.770;9.200;2023-02-22T07:43:20;17.20;;;9.57;;
295;SDS011;132;48.770;9.200;2023-02-22T07:45:49;16.25;;;9.38;;
295;SDS011;132;48.770;9.200;2023-02-22T07:48:18;18.80;;;9.38;;
295;SDS011;132;48.770;9.200;2023-02-22T07:50:45;20.63;;;9.55;;
295;SDS011;132;48.770;9.200;2023-02-22T07:53:14;17.27;;;9.05;;
295;SDS011;132;48.770;9.200;2023-02-22T07:55:42;20.55;;;10.10;;
295;SDS011;132;48.770;9.200;2023-02-22T07:58:12;19.63;;;9.68;;
295;SDS011;132;48.770;9.200;2023-02-22T08:00:40;22.08;;;10.43;;
295;SDS011;132;48.770;9.200;2023-02-22T08:03:10;21.85;;;10.20;;
295;SDS011;132;48.770;9.200;2023-02-22T08:05:38;16.95;;;10.70;;
295;SDS011;132;48.770;9.200;2023-02-22T08:08:06;20.02;;;10.40;;
295;SDS011;132;48.770;9.200;2023-02-22T08:10:33;18.58;;;11.07;;
295;SDS011;132;48.770;9.200;2023-02-22T08:13:00;18.10;;;9.43;;
295;SDS011;132;48.770;9.200;2023-02-22T08:15:29;18.15;;;9.75;;
295;SDS011;132;48.770;9.200;2023-02-22T08:17:57;21.33;;;10.55;;
295;SDS011;132;48.770;9.200;2023-02-22T08:20:24;19.13;;;10.57;;
295;SDS011;132;48.770;9.200;2023-02-22T08:22:51;21.75;;;11.02;;
295;SDS011;132;48.770;9.200;2023-02-22T08:25:19;18.70;;;10.57;;
295;SDS011;132;48.770;9.200;2023-02-22T08:27:47;18.88;;;10.40;;
295;SDS011;132;48.770;9.200;2023-02-22T08:30:18;18.00;;;9.82;;
295;SDS011;132;48.770;9.200;2023-02-22T08:32:47;21.40;;;10.60;;
295;SDS011;132;48.770;9.200;2023-02-22T08:35:15;18.17;;;9.95;;
295;SDS011;132;48.770;9.200;2023-02-22T08:37:43;16.95;;;10.05;;
295;SDS011;132;48.770;9.200;2023-02-22T08:40:30;16.92;;;10.15;;
295;SDS011;132;48.770;9.200;2023-02-22T08:42:58;15.70;;;9.20;;
295;SDS011;132;48.770;9.200;2023-02-22T08:45:26;16.35;;;9.20;;
295;SDS011;132;48.770;9.200;2023-02-22T08:47:52;17.58;;;9.75;;
295;SDS011;132;48.770;9.200;2023-02-22T08:50:23;24.27;;;9.50;;
295;SDS011;132;48.770;9.200;2023-02-22T08:52:54;17.77;;;9.30;;
295;SDS011;132;48.770;9.200;2023-02-22T08:55:24;16.77;;;9.20;;
295;SDS011;132;48.770;9.200;2023-02-22T08:57:52;18.38;;;8.95;;
295;SDS011;132;48.770;9.200;2023-02-22T09:00:19;20.83;;;9.38;;
295;SDS011;132;48.770;9.200;2023-02-22T09:02:50;15.98;;;10.27;;
295;SDS011;132;48.770;9.200;2023-02-22T09:05:17;19.92;;;10.77;;
295;SDS011;132;48.770;9.200;2023-02-22T09:07:44;21.13;;;10.60;;
295;SDS011;132;48.770;9.200;2023-02-22T09:10:12;23.55;;;11.10;;
295;SDS011;132;48.770;9.200;2023-02-22T09:12:40;19.05;;;10.10;;
295;SDS011;132;48.770;9.200;2023-02-22T09:15:07;18.48;;;10.93;;
295;SDS011;132;48.770;9.200;2023-02-22T09:17:34;20.70;;;11.27;;
295;SDS011;132;48.770;9.200;2023-02-22T09:20:05;16.70;;;10.55;;
295;SDS011;132;48.770;9.200;2023-02-22T09:22:33;15.55;;;9.57;;
295;SDS011;132;48.770;9.200;2023-02-22T09:24:59;18.17;;;10.57;;
295;SDS011;132;48.770;9.200;2023-02-22T09:27:25;16.95;;;9.88;;
295;SDS011;132;48.770;9.200;2023-02-22T09:29:55;17.92;;;10.27;;
295;SDS011;132;48.770;9.200;2023-02-22T09:32:22;21.33;;;10.60;;
295;SDS011;132;48.770;9.200;2023-02-22T09:34:52;18.08;;;9.43;;
295;SDS011;132;48.770;9.200;2023-02-22T09:37:20;19.20;;;10.02;;
295;SDS011;132;48.770;9.200;2023-02-22T09:39:47;14.27;;;8.60;;
295;SDS011;132;48.770;9.200;2023-02-22T09:47:21;18.75;;;9.40;;
295;SDS011;132;48.770;9.200;2023-02-22T09:50:08;16.15;;;8.32;;
295;SDS011;132;48.770;9.200;2023-02-22T09:58:00;21.73;;;10.37;;
295;SDS011;132;48.770;9.200;2023-02-22T10:00:33;19.13;;;9.80;;
295;SDS011;132;48.770;9.200;2023-02-22T10:05:39;18.63;;;9.20;;
295;SDS011;132;48.770;9.200;2023-02-22T10:08:12;18.17;;;9.70;;
295;SDS011;132;48.770;9.200;2023-02-22T10:10:44;19.90;;;9.17;;
295;SDS011;132;48.770;9.200;2023-02-22T10:16:02;20.00;;;9.80;;
295;SDS011;132;48.770;9.200;2023-02-22T10:26:50;19.80;;;9.30;;
295;SDS011;132;48.770;9.200;2023-02-22T10:30:02;18.53;;;9.80;;
295;SDS011;132;48.770;9.200;2023-02-22T10:32:14;16.73;;;9.50;;
295;SDS011;132;48.770;9.200;2023-02-22T10:34:45;18.37;;;9.17;;
295;SDS011;132;48.770;9.200;2023-02-22T10:37:20;19.53;;;8.70;;
295;SDS011;132;48.770;9.200;2023-02-22T10:40:10;19.03;;;8.77;;
295;SDS011;132;48.770;9.200;2023-02-22T10:42:42;16.73;;;8.30;;
295;SDS011;132;48.770;9.200;2023-02-22T10:47:47;19.70;;;8.63;;
295;SDS011;132;48.770;9.200;2023-02-22T10:50:15;13.70;;;9.10;;
295;SDS011;132;48.770;9.200;2023-02-22T10:52:41;19.83;;;8.50;;
295;SDS011;132;48.770;9.200;2023-02-22T10:55:10;19.07;;;8.33;;
295;SDS011;132;48.770;9.200;2023-02-22T10:57:38;21.10;;;9.17;;
295;SDS011;132;48.770;9.200;2023-02-22T11:00:27;19.90;;;9.50;;
295;SDS011;132;48.770;9.200;2023-02-22T11:03:01;15.00;;;9.27;;
295;SDS011;132;48.770;9.200;2023-02-22T11:05:41;22.07;;;10.17;;
295;SDS011;132;48.770;9.200;2023-02-22T11:10:50;16.50;;;9.30;;
295;SDS011;132;48.770;9.200;2023-02-22T11:15:59;17.57;;;9.30;;
295;SDS011;132;48.770;9.200;2023-02-22T11:18:41;15.40;;;9.10;;
295;SDS011;132;48.770;9.200;2023-02-22T11:21:09;27.97;;;9.27;;
295;SDS011;132;48.770;9.200;2023-02-22T11:23:38;16.33;;;9.57;;
295;SDS011;132;48.770;9.200;2023-02-22T11:26:07;18.40;;;9.20;;
295;SDS011;132;48.770;9.200;2023-02-22T11:28:57;20.40;;;9.37;;
295;SDS011;132;48.770;9.200;2023-02-22T11:31:27;19.80;;;9.10;;
295;SDS011;132;48.770;9.200;2023-02-22T11:33:55;24.80;;;10.27;;
295;SDS011;132;48.770;9.200;2023-02-22T11:36:34;17.50;;;9.23;;
295;SDS011;132;48.770;9.200;2023-02-22T11:39:03;18.00;;;8.90;;
295;SDS011;132;48.770;9.200;2023-02-22T11:41:36;17.97;;;9.20;;
295;SDS011;132;48.770;9.200;2023-02-22T11:44:12;14.40;;;8.77;;
295;SDS011;132;48.770;9.200;2023-02-22T11:46:40;15.93;;;9.17;;
295;SDS011;132;48.770;9.200;2023-02-22T11:49:08;20.23;;;10.47;;
295;SDS011;132;48.770;9.200;2023-02-22T11:57:25;17.00;;;9.10;;
295;SDS011;132;48.770;9.200;2023-02-22T12:00:11;17.23;;;9.60;;
295;SDS011;132;48.770;9.200;2023-02-22T12:06:03;16.93;;;9.70;;
295;SDS011;132;48.770;9.200;2023-02-22T12:11:24;21.00;;;9.67;;
295;SDS011;132;48.770;9.200;2023-02-22T12:14:05;21.00;;;11.53;;
295;SDS011;132;48.770;9.200;2023-02-22T12:19:32;22.43;;;11.13;;
295;SDS011;132;48.770;9.200;2023-02-22T12:22:04;18.10;;;11.20;;
295;SDS011;132;48.770;9.200;2023-02-22T12:24:52;19.73;;;10.80;;
295;SDS011;132;48.770;9.200;2023-02-22T12:27:35;17.50;;;11.03;;
295;SDS011;132;48.770;9.200;2023-02-22T12:32:54;17.40;;;10.60;;
295;SDS011;132;48.770;9.200;2023-02-22T12:35:36;20.27;;;11.47;;
295;SDS011;132;48.770;9.200;2023-02-22T12:41:21;17.83;;;11.30;;
295;SDS011;132;48.770;9.200;2023-02-22T12:44:00;18.20;;;10.70;;
295;SDS011;132;48.770;9.200;2023-02-22T12:46:41;24.77;;;11.17;;
295;SDS011;132;48.770;9.200;2023-02-22T12:49:19;21.57;;;11.20;;
295;SDS011;132;48.770;9.200;2023-02-22T12:57:36;16.50;;;10.33;;
295;SDS011;132;48.770;9.200;2023-02-22T13:00:24;15.67;;;9.23;;
295;SDS011;132;48.770;9.200;2023-02-22T13:05:47;16.13;;;9.20;;
295;SDS011;132;48.770;9.200;2023-02-22T13:11:00;19.63;;;10.73;;
295;SDS011;132;48.770;9.200;2023-02-22T13:16:42;14.17;;;9.37;;
295;SDS011;132;48.770;9.200;2023-02-22T13:19:34;17.50;;;9.30;;
295;SDS011;132;48.770;9.200;2023-02-22T13:22:27;14.17;;;9.07;;
295;SDS011;132;48.770;9.200;2023-02-22T13:28:07;15.50;;;9.50;;
295;SDS011;132;48.770;9.200;2023-02-22T13:39:44;21.33;;;10.50;;
295;SDS011;132;48.770;9.200;2023-02-22T13:42:35;17.83;;;10.37;;
295;SDS011;132;48.770;9.200;2023-02-22T13:53:23;21.30;;;9.23;;
295;SDS011;132;48.770;9.200;2023-02-22T13:55:55;16.20;;;9.60;;
295;SDS011;132;48.770;9.200;2023-02-22T13:58:23;17.40;;;10.23;;
295;SDS011;132;48.770;9.200;2023-02-22T14:05:52;17.67;;;9.90;;
295;SDS011;132;48.770;9.200;2023-02-22T14:13:29;18.27;;;9.90;;
295;SDS011;132;48.770;9.200;2023-02-22T14:18:27;19.00;;;9.63;;
295;SDS011;132;48.770;9.200;2023-02-22T14:21:05;18.13;;;9.60;;
295;SDS011;132;48.770;9.200;2023-02-22T14:23:43;13.70;;;9.43;;
295;SDS011;132;48.770;9.200;2023-02-22T14:28:51;17.20;;;10.83;;
295;SDS011;132;48.770;9.200;2023-02-22T14:31:27;18.60;;;9.37;;
295;SDS011;132;48.770;9.200;2023-02-22T14:37:03;18.90;;;9.90;;
295;SDS011;132;48.770;9.200;2023-02-22T14:47:49;16.47;;;9.93;;
295;SDS011;132;48.770;9.200;2023-02-22T14:50:27;16.83;;;10.43;;
295;SDS011;132;48.770;9.200;2023-02-22T14:55:41;17.67;;;10.07;;
295;SDS011;132;48.770;9.200;2023-02-22T15:00:42;18.43;;;9.87;;
295;SDS011;132;48.770;9.200;2023-02-22T15:05:43;14.93;;;9.53;;
295;SDS011;132;48.770;9.200;2023-02-22T15:08:11;15.87;;;10.40;;
295;SDS011;132;48.770;9.200;2023-02-22T15:10:43;15.63;;;9.70;;
295;SDS011;132;48.770;9.200;2023-02-22T15:13:16;14.70;;;9.03;;
295;SDS011;132;48.770;9.200;2023-02-22T15:15:47;16.47;;;10.07;;
295;SDS011;132;48.770;9.200;2023-02-22T15:18:32;16.77;;;9.87;;
295;SDS011;132;48.770;9.200;2023-02-22T15:21:14;18.93;;;11.10;;
295;SDS011;132;48.770;9.200;2023-02-22T15:23:44;19.03;;;11.40;;
295;SDS011;132;48.770;9.200;2023-02-22T15:29:01;18.13;;;11.13;;
295;SDS011;132;48.770;9.200;2023-02-22T15:31:45;16.70;;;9.60;;
295;SDS011;132;48.770;9.200;2023-02-22T15:34:16;17.30;;;10.20;;
295;SDS011;132;48.770;9.200;2023-02-22T15:36:55;17.97;;;11.57;;
295;SDS011;132;48.770;9.200;2023-02-22T15:39:29;20.67;;;11.63;;
295;SDS011;132;48.770;9.200;2023-02-22T15:41:59;21.43;;;11.50;;
295;SDS011;132;48.770;9.200;2023-02-22T15:44:36;18.73;;;11.23;;
295;SDS011;132;48.770;9.200;2023-02-22T15:47:05;16.30;;;11.20;;
295;SDS011;132;48.770;9.200;2023-02-22T15:49:43;22.60;;;11.43;;
295;SDS011;132;48.770;9.200;2023-02-22T15:52:16;19.33;;;12.03;;
295;SDS011;132;48.770;9.200;2023-02-22T15:54:46;19.87;;;11.97;;
295;SDS011;132;48.770;9.200;2023-02-22T15:57:16;21.90;;;13.17;;
295;SDS011;132;48.770;9.200;2023-02-22T15:59:46;22.53;;;12.50;;
295;SDS011;132;48.770;9.200;2023-02-22T16:02:34;19.17;;;12.10;;
295;SDS011;132;48.770;9.200;2023-02-22T16:05:08;25.60;;;13.93;;
295;SDS011;132;48.770;9.200;2023-02-22T16:07:40;30.60;;;14.00;;
295;SDS011;132;48.770;9.200;2023-02-22T16:10:18;31.50;;;16.20;;
295;SDS011;132;48.770;9.200;2023-02-22T16:12:47;29.53;;;15.10;;
295;SDS011;132;48.770;9.200;2023-02-22T16:15:15;27.30;;;13.13;;
295;SDS011;132;48.770;9.200;2023-02-22T16:17:43;21.80;;;13.37;;
295;SDS011;132;48.770;9.200;2023-02-22T16:22:38;24.00;;;14.67;;
295;SDS011;132;48.770;9.200;2023-02-22T16:27:47;24.47;;;13.30;;
295;SDS011;132;48.770;9.200;2023-02-22T16:32:57;23.80;;;13.07;;
295;SDS011;132;48.770;9.200;2023-02-22T16:35:24;25.30;;;13.40;;
295;SDS011;132;48.770;9.200;2023-02-22T16:37:57;32.20;;;16.00;;
295;SDS011;132;48.770;9.200;2023-02-22T16:40:38;30.73;;;13.60;;
295;SDS011;132;48.770;9.200;2023-02-22T16:43:13;20.50;;;13.20;;
295;SDS011;132;48.770;9.200;2023-02-22T16:45:45;21.67;;;12.60;;
295;SDS011;132;48.770;9.200;2023-02-22T16:48:13;25.20;;;13.50;;
295;SDS011;132;48.770;9.200;2023-02-22T16:50:46;25.30;;;13.77;;
295;SDS011;132;48.770;9.200;2023-02-22T16:53:13;26.40;;;13.13;;
295;SDS011;132;48.770;9.200;2023-02-22T16:55:45;31.90;;;16.30;;
295;SDS011;132;48.770;9.200;2023-02-22T16:58:13;25.83;;;15.37;;
295;SDS011;132;48.770;9.200;2023-02-22T17:00:40;23.90;;;13.70;;
295;SDS011;132;48.770;9.200;2023-02-22T17:03:09;28.10;;;13.37;;
295;SDS011;132;48.770;9.200;2023-02-22T17:05:40;23.73;;;12.33;;
295;SDS011;132;48.770;9.200;2023-02-22T17:08:07;23.63;;;12.23;;
295;SDS011;132;48.770;9.200;2023-02-22T17:10:33;26.40;;;12.63;;
295;SDS011;132;48.770;9.200;2023-02-22T17:13:00;23.43;;;13.20;;
295;SDS011;132;48.770;9.200;2023-02-22T17:15:28;21.90;;;12.53;;
295;SDS011;132;48.770;9.200;2023-02-22T17:17:57;25.77;;;12.80;;
295;SDS011;132;48.770;9.200;2023-02-22T17:20:24;23.83;;;13.30;;
295;SDS011;132;48.770;9.200;2023-02-22T17:23:03;28.23;;;12.43;;
295;SDS011;132;48.770;9.200;2023-02-22T17:25:35;22.90;;;12.07;;
295;SDS011;132;48.770;9.200;2023-02-22T17:28:07;21.27;;;11.60;;
295;SDS011;132;48.770;9.200;2023-02-22T17:30:34;23.43;;;12.90;;
295;SDS011;132;48.770;9.200;2023-02-22T17:33:01;25.00;;;12.40;;
295;SDS011;132;48.770;9.200;2023-02-22T17:35:30;24.37;;;13.67;;
295;SDS011;132;48.770;9.200;2023-02-22T17:37:58;26.03;;;13.00;;
295;SDS011;132;48.770;9.200;2023-02-22T17:40:26;21.63;;;12.60;;
295;SDS011;132;48.770;9.200;2023-02-22T17:42:53;21.57;;;12.90;;
295;SDS011;132;48.770;9.200;2023-02-22T17:45:21;28.07;;;13.43;;
295;SDS011;132;48.770;9.200;2023-02-22T17:47:49;27.90;;;13.10;;
295;SDS011;132;48.770;9.200;2023-02-22T17:50:17;24.33;;;13.20;;
295;SDS011;132;48.770;9.200;2023-02-22T17:52:44;27.37;;;14.03;;
295;SDS011;132;48.770;9.200;2023-02-22T17:55:12;25.40;;;13.33;;
295;SDS011;132;48.770;9.200;2023-02-22T17:57:39;25.00;;;13.17;;
295;SDS011;132;48.770;9.200;2023-02-22T18:00:09;20.80;;;12.10;;
295;SDS011;132;48.770;9.200;2023-02-22T18:02:38;19.83;;;11.50;;
295;SDS011;132;48.770;9.200;2023-02-22T18:05:07;21.17;;;12.17;;
295;SDS011;132;48.770;9.200;2023-02-22T18:07:39;22.90;;;12.40;;
295;SDS011;132;48.770;9.200;2023-02-22T18:10:05;20.27;;;11.73;;
295;SDS011;132;48.770;9.200;2023-02-22T18:12:39;23.20;;;12.60;;
295;SDS011;132;48.770;9.200;2023-02-22T18:15:07;22.47;;;12.40;;
295;SDS011;132;48.770;9.200;2023-02-22T18:17:36;25.33;;;12.57;;
295;SDS011;132;48.770;9.200;2023-02-22T18:20:03;21.07;;;11.23;;
295;SDS011;132;48.770;9.200;2023-02-22T18:22:42;19.97;;;10.90;;
295;SDS011;132;48.770;9.200;2023-02-22T18:25:12;22.67;;;10.40;;
295;SDS011;132;48.770;9.200;2023-02-22T18:27:40;23.60;;;12.03;;
295;SDS011;132;48.770;9.200;2023-02-22T18:30:10;23.30;;;11.27;;